sensor_id;sensor_type;location;lat;lon;timestamp;pressure;altitude;pressure_sealevel;temperature;humidity
47166;BME280;32930;51.112;13.762;2023-02-08T00:01:17;101834.38;;;-2.41;72.02
47166;BME280;32930;51.112;13.762;2023-02-08T00:03:43;101842.22;;;-2.47;72.28
47166;BME280;32930;51.112;13.762;2023-02-08T00:06:10;101840.47;;;-2.48;72.75
47166;BME280;32930;51.112;13.762;2023-02-08T00:08:36;101846.97;;;-2.59;72.66
47166;BME280;32930;51.112;13.762;2023-02-08T00:13:33;101849.63;;;-2.48;72.66
47166;BME280;32930;51.112;13.762;2023-02-08T00:15:59;101844.91;;;-2.54;72.53
47166;BME280;32930;51.112;13.762;2023-02-08T00:18:24;101846.97;;;-2.50;72.64
47166;BME280;32930;51.112;13.762;2023-02-08T00:20:50;101840.78;;;-2.53;72.34
47166;BME280;32930;51.112;13.762;2023-02-08T00:23:16;101840.78;;;-2.53;72.41
47166;BME280;32930;51.112;13.762;2023-02-08T00:25:42;101845.09;;;-2.61;72.81
47166;BME280;32930;51.112;13.762;2023-02-08T00:28:12;101837.50;;;-2.52;72.85
47166;BME280;32930;51.112;13.762;2023-02-08T00:30:39;101835.63;;;-2.64;72.14
47166;BME280;32930;51.112;13.762;2023-02-08T00:33:05;101841.94;;;-2.59;72.11
47166;BME280;32930;51.112;13.762;2023-02-08T00:35:31;101832.34;;;-2.63;71.91
47166;BME280;32930;51.112;13.762;2023-02-08T00:37:57;101837.69;;;-2.60;72.38
47166;BME280;32930;51.112;13.762;2023-02-08T00:40:25;101835.63;;;-2.64;72.12
47166;BME280;32930;51.112;13.762;2023-02-08T00:42:52;101845.38;;;-2.67;72.47
47166;BME280;32930;51.112;13.762;2023-02-08T00:45:18;101836.50;;;-2.72;72.36
47166;BME280;32930;51.112;13.762;2023-02-08T00:47:43;101836.97;;;-2.67;72.28
47166;BME280;32930;51.112;13.762;2023-02-08T00:50:10;101830.44;;;-2.65;72.23
47166;BME280;32930;51.112;13.762;2023-02-08T00:52:36;101836.69;;;-2.79;72.29
47166;BME280;32930;51.112;13.762;2023-02-08T00:55:01;101828.38;;;-2.78;72.04
47166;BME280;32930;51.112;13.762;2023-02-08T00:57:27;101828.56;;;-2.76;71.89
47166;BME280;32930;51.112;13.762;2023-02-08T00:59:52;101826.34;;;-2.82;72.10
47166;BME280;32930;51.112;13.762;2023-02-08T01:02:18;101819.56;;;-2.83;72.40
47166;BME280;32930;51.112;13.762;2023-02-08T01:04:43;101820.72;;;-2.80;72.54
47166;BME280;32930;51.112;13.762;2023-02-08T01:07:09;101818.94;;;-2.72;72.52
47166;BME280;32930;51.112;13.762;2023-02-08T01:09:34;101814.81;;;-2.80;72.46
47166;BME280;32930;51.112;13.762;2023-02-08T01:12:00;101814.97;;;-2.78;72.05
47166;BME280;32930;51.112;13.762;2023-02-08T01:14:26;101811.25;;;-2.65;71.50
47166;BME280;32930;51.112;13.762;2023-02-08T01:16:51;101812.31;;;-2.80;71.83
47166;BME280;32930;51.112;13.762;2023-02-08T01:19:17;101811.72;;;-2.95;72.10
47166;BME280;32930;51.112;13.762;2023-02-08T01:21:43;101807.44;;;-2.87;71.95
47166;BME280;32930;51.112;13.762;2023-02-08T01:24:10;101806.97;;;-2.74;72.12
47166;BME280;32930;51.112;13.762;2023-02-08T01:29:09;101815.13;;;-2.86;71.75
47166;BME280;32930;51.112;13.762;2023-02-08T01:31:37;101815.00;;;-2.96;71.55
47166;BME280;32930;51.112;13.762;2023-02-08T01:45:40;101805.41;;;-3.09;71.79
47166;BME280;32930;51.112;13.762;2023-02-08T01:48:16;101804.19;;;-3.12;71.41
47166;BME280;32930;51.112;13.762;2023-02-08T02:51:17;101777.38;;;-3.31;70.96
47166;BME280;32930;51.112;13.762;2023-02-08T03:00:25;101778.09;;;-3.40;71.48
47166;BME280;32930;51.112;13.762;2023-02-08T03:02:52;101782.81;;;-3.43;71.64
47166;BME280;32930;51.112;13.762;2023-02-08T03:05:20;101772.34;;;-3.39;71.08
47166;BME280;32930;51.112;13.762;2023-02-08T03:08:06;101785.63;;;-3.49;70.60
47166;BME280;32930;51.112;13.762;2023-02-08T03:27:11;101792.97;;;-3.51;71.33
47166;BME280;32930;51.112;13.762;2023-02-08T04:59:04;101797.56;;;-3.12;73.08
47166;BME280;32930;51.112;13.762;2023-02-08T05:01:32;101797.88;;;-3.09;73.38
47166;BME280;32930;51.112;13.762;2023-02-08T06:03:26;101801.53;;;-2.88;74.22
47166;BME280;32930;51.112;13.762;2023-02-08T06:05:51;101804.31;;;-2.85;74.68
47166;BME280;32930;51.112;13.762;2023-02-08T06:08:17;101805.94;;;-2.76;74.45
47166;BME280;32930;51.112;13.762;2023-02-08T06:10:42;101800.84;;;-2.50;74.63
47166;BME280;32930;51.112;13.762;2023-02-08T06:13:10;101805.28;;;-2.39;74.12
47166;BME280;32930;51.112;13.762;2023-02-08T06:15:35;101806.47;;;-2.44;74.45
47166;BME280;32930;51.112;13.762;2023-02-08T06:18:01;101806.16;;;-2.39;74.76
47166;BME280;32930;51.112;13.762;2023-02-08T06:20:27;101813.19;;;-2.26;74.49
47166;BME280;32930;51.112;13.762;2023-02-08T06:22:53;101812.38;;;-2.44;74.94
47166;BME280;32930;51.112;13.762;2023-02-08T06:25:19;101808.97;;;-2.44;75.33
47166;BME280;32930;51.112;13.762;2023-02-08T06:27:44;101812.34;;;-2.35;74.85
47166;BME280;32930;51.112;13.762;2023-02-08T06:30:10;101815.25;;;-2.22;74.59
47166;BME280;32930;51.112;13.762;2023-02-08T06:32:36;101816.47;;;-2.27;74.59
47166;BME280;32930;51.112;13.762;2023-02-08T06:35:01;101826.66;;;-2.34;74.60
47166;BME280;32930;51.112;13.762;2023-02-08T06:37:27;101834.78;;;-2.28;74.59
47166;BME280;32930;51.112;13.762;2023-02-08T06:39:52;101829.19;;;-2.34;74.27
47166;BME280;32930;51.112;13.762;2023-02-08T06:42:18;101829.75;;;-2.28;74.74
47166;BME280;32930;51.112;13.762;2023-02-08T06:44:43;101829.16;;;-2.25;74.21
47166;BME280;32930;51.112;13.762;2023-02-08T06:47:09;101835.03;;;-2.07;73.50
47166;BME280;32930;51.112;13.762;2023-02-08T06:49:34;101837.41;;;-2.18;73.66
47166;BME280;32930;51.112;13.762;2023-02-08T06:52:00;101843.75;;;-2.13;73.66
47166;BME280;32930;51.112;13.762;2023-02-08T06:54:25;101838.34;;;-2.26;73.99
47166;BME280;32930;51.112;13.762;2023-02-08T06:56:51;101835.59;;;-2.01;73.41
47166;BME280;32930;51.112;13.762;2023-02-08T06:59:16;101845.13;;;-2.25;74.03
47166;BME280;32930;51.112;13.762;2023-02-08T07:01:42;101839.38;;;-1.96;73.75
47166;BME280;32930;51.112;13.762;2023-02-08T07:04:07;101846.56;;;-2.18;73.88
47166;BME280;32930;51.112;13.762;2023-02-08T07:06:33;101844.22;;;-2.17;74.45
47166;BME280;32930;51.112;13.762;2023-02-08T07:08:59;101840.91;;;-1.98;74.11
47166;BME280;32930;51.112;13.762;2023-02-08T07:11:26;101849.03;;;-2.01;73.34
47166;BME280;32930;51.112;13.762;2023-02-08T07:13:52;101845.66;;;-2.10;74.10
47166;BME280;32930;51.112;13.762;2023-02-08T07:16:19;101847.16;;;-2.21;74.06
47166;BME280;32930;51.112;13.762;2023-02-08T07:18:45;101840.34;;;-2.13;74.12
47166;BME280;32930;51.112;13.762;2023-02-08T07:21:11;101838.03;;;-1.93;74.28
47166;BME280;32930;51.112;13.762;2023-02-08T07:23:38;101840.88;;;-1.71;73.67
47166;BME280;32930;51.112;13.762;2023-02-08T07:26:06;101844.69;;;-1.93;73.95
47166;BME280;32930;51.112;13.762;2023-02-08T07:28:32;101842.41;;;-2.09;74.36
47166;BME280;32930;51.112;13.762;2023-02-08T07:30:58;101837.09;;;-2.12;74.52
47166;BME280;32930;51.112;13.762;2023-02-08T07:33:24;101844.09;;;-1.91;74.05
47166;BME280;32930;51.112;13.762;2023-02-08T07:35:50;101847.03;;;-1.86;74.76
47166;BME280;32930;51.112;13.762;2023-02-08T07:38:16;101848.44;;;-1.71;74.12
47166;BME280;32930;51.112;13.762;2023-02-08T07:40:43;101844.75;;;-1.74;74.15
47166;BME280;32930;51.112;13.762;2023-02-08T07:43:09;101846.41;;;-1.75;73.91
47166;BME280;32930;51.112;13.762;2023-02-08T07:45:38;101841.81;;;-1.70;73.64
47166;BME280;32930;51.112;13.762;2023-02-08T07:48:04;101838.25;;;-1.72;73.60
47166;BME280;32930;51.112;13.762;2023-02-08T07:50:29;101849.28;;;-1.61;73.94
47166;BME280;32930;51.112;13.762;2023-02-08T07:52:55;101847.47;;;-1.54;73.51
47166;BME280;32930;51.112;13.762;2023-02-08T07:55:20;101844.53;;;-1.58;73.22
47166;BME280;32930;51.112;13.762;2023-02-08T07:57:47;101840.59;;;-1.46;73.60
47166;BME280;32930;51.112;13.762;2023-02-08T08:00:15;101843.59;;;-1.50;72.92
47166;BME280;32930;51.112;13.762;2023-02-08T08:02:41;101844.97;;;-1.35;72.90
47166;BME280;32930;51.112;13.762;2023-02-08T08:05:08;101842.19;;;-1.38;72.47
47166;BME280;32930;51.112;13.762;2023-02-08T08:07:34;101848.16;;;-1.27;72.02
47166;BME280;32930;51.112;13.762;2023-02-08T08:10:00;101853.75;;;-1.21;71.85
47166;BME280;32930;51.112;13.762;2023-02-08T08:12:26;101852.81;;;-1.13;71.47
47166;BME280;32930;51.112;13.762;2023-02-08T08:14:51;101859.13;;;-1.08;71.29
47166;BME280;32930;51.112;13.762;2023-02-08T08:17:18;101858.19;;;-0.81;70.97
47166;BME280;32930;51.112;13.762;2023-02-08T08:19:43;101857.91;;;-0.84;69.85
47166;BME280;32930;51.112;13.762;2023-02-08T08:22:10;101849.03;;;-0.89;70.02
47166;BME280;32930;51.112;13.762;2023-02-08T08:24:35;101852.31;;;-0.42;69.60
47166;BME280;32930;51.112;13.762;2023-02-08T08:27:05;101855.59;;;-0.72;69.33
47166;BME280;32930;51.112;13.762;2023-02-08T08:29:33;101849.59;;;-0.25;68.77
47166;BME280;32930;51.112;13.762;2023-02-08T08:31:59;101849.38;;;-0.07;68.47
47166;BME280;32930;51.112;13.762;2023-02-08T08:34:24;101845.78;;;-0.30;67.61
47166;BME280;32930;51.112;13.762;2023-02-08T08:37:01;101859.44;;;-0.57;67.92
47166;BME280;32930;51.112;13.762;2023-02-08T08:39:27;101863.75;;;-0.75;67.79
47166;BME280;32930;51.112;13.762;2023-02-08T08:41:56;101855.84;;;-0.69;67.70
47166;BME280;32930;51.112;13.762;2023-02-08T08:44:22;101863.84;;;-0.54;67.70
47166;BME280;32930;51.112;13.762;2023-02-08T08:46:48;101861.47;;;-0.53;67.77
47166;BME280;32930;51.112;13.762;2023-02-08T08:49:13;101855.88;;;-0.30;66.90
47166;BME280;32930;51.112;13.762;2023-02-08T08:51:39;101861.38;;;-0.05;65.90
47166;BME280;32930;51.112;13.762;2023-02-08T08:54:05;101868.06;;;-0.05;66.15
47166;BME280;32930;51.112;13.762;2023-02-08T08:56:32;101871.38;;;0.14;66.00
47166;BME280;32930;51.112;13.762;2023-02-08T08:58:59;101867.91;;;-0.17;66.14
47166;BME280;32930;51.112;13.762;2023-02-08T09:01:25;101873.19;;;0.26;65.35
47166;BME280;32930;51.112;13.762;2023-02-08T09:03:53;101873.47;;;0.39;64.93
47166;BME280;32930;51.112;13.762;2023-02-08T11:28:29;101814.25;;;2.17;57.45
47166;BME280;32930;51.112;13.762;2023-02-08T11:42:40;101818.91;;;2.00;57.17
47166;BME280;32930;51.112;13.762;2023-02-08T11:55:40;101802.72;;;2.32;55.99
47166;BME280;32930;51.112;13.762;2023-02-08T12:01:19;101796.56;;;2.28;56.20
47166;BME280;32930;51.112;13.762;2023-02-08T12:57:22;101781.69;;;2.21;54.73
47166;BME280;32930;51.112;13.762;2023-02-08T13:02:35;101771.56;;;2.33;54.17
47166;BME280;32930;51.112;13.762;2023-02-08T13:05:25;101778.13;;;2.53;53.98
47166;BME280;32930;51.112;13.762;2023-02-08T13:14:34;101749.22;;;2.39;53.29
47166;BME280;32930;51.112;13.762;2023-02-08T13:17:18;101746.16;;;2.31;53.61
47166;BME280;32930;51.112;13.762;2023-02-08T13:48:23;101712.88;;;2.15;55.18
47166;BME280;32930;51.112;13.762;2023-02-08T13:50:53;101709.88;;;2.09;55.41
47166;BME280;32930;51.112;13.762;2023-02-08T14:16:44;101702.63;;;2.14;55.16
47166;BME280;32930;51.112;13.762;2023-02-08T14:19:22;101712.19;;;2.06;55.21
47166;BME280;32930;51.112;13.762;2023-02-08T14:24:38;101707.16;;;2.18;55.58
47166;BME280;32930;51.112;13.762;2023-02-08T14:27:19;101709.38;;;2.25;55.11
47166;BME280;32930;51.112;13.762;2023-02-08T14:32:36;101705.38;;;2.17;55.08
47166;BME280;32930;51.112;13.762;2023-02-08T14:35:17;101706.25;;;2.05;55.44
47166;BME280;32930;51.112;13.762;2023-02-08T14:37:46;101704.91;;;1.99;55.47
47166;BME280;32930;51.112;13.762;2023-02-08T14:50:53;101701.50;;;2.10;55.08
47166;BME280;32930;51.112;13.762;2023-02-08T14:53:33;101697.00;;;2.06;55.64
47166;BME280;32930;51.112;13.762;2023-02-08T14:59:08;101700.19;;;2.03;55.74
47166;BME280;32930;51.112;13.762;2023-02-08T15:01:53;101697.22;;;2.09;55.96
47166;BME280;32930;51.112;13.762;2023-02-08T15:04:22;101705.53;;;1.84;56.09
47166;BME280;32930;51.112;13.762;2023-02-08T15:09:47;101699.75;;;2.09;55.79
47166;BME280;32930;51.112;13.762;2023-02-08T15:14:54;101688.41;;;2.04;56.70
47166;BME280;32930;51.112;13.762;2023-02-08T15:19:57;101691.63;;;1.79;56.50
47166;BME280;32930;51.112;13.762;2023-02-08T15:24:55;101681.00;;;1.83;56.50
47166;BME280;32930;51.112;13.762;2023-02-08T15:27:32;101681.31;;;1.88;56.54
47166;BME280;32930;51.112;13.762;2023-02-08T15:29:59;101676.00;;;1.73;56.70
47166;BME280;32930;51.112;13.762;2023-02-08T15:32:27;101672.19;;;1.78;56.88
47166;BME280;32930;51.112;13.762;2023-02-08T15:41:39;101673.81;;;1.78;56.88
47166;BME280;32930;51.112;13.762;2023-02-08T15:44:20;101672.03;;;1.65;57.05
47166;BME280;32930;51.112;13.762;2023-02-08T15:59:37;101661.97;;;1.77;56.90
47166;BME280;32930;51.112;13.762;2023-02-08T16:02:28;101661.97;;;1.89;57.13
47166;BME280;32930;51.112;13.762;2023-02-08T16:47:48;101641.53;;;1.52;57.79
47166;BME280;32930;51.112;13.762;2023-02-08T16:50:19;101640.75;;;1.53;57.83
47166;BME280;32930;51.112;13.762;2023-02-08T16:52:51;101632.06;;;1.49;57.95
47166;BME280;32930;51.112;13.762;2023-02-08T17:02:09;101623.38;;;1.46;57.95
47166;BME280;32930;51.112;13.762;2023-02-08T17:04:36;101629.56;;;1.27;58.45
47166;BME280;32930;51.112;13.762;2023-02-08T17:07:02;101632.84;;;1.26;58.65
47166;BME280;32930;51.112;13.762;2023-02-08T17:09:27;101628.19;;;1.43;58.64
47166;BME280;32930;51.112;13.762;2023-02-08T17:11:54;101625.25;;;1.48;58.42
47166;BME280;32930;51.112;13.762;2023-02-08T17:14:20;101623.13;;;1.43;57.98
47166;BME280;32930;51.112;13.762;2023-02-08T17:16:46;101629.25;;;1.34;58.31
47166;BME280;32930;51.112;13.762;2023-02-08T17:19:16;101627.22;;;1.52;58.52
47166;BME280;32930;51.112;13.762;2023-02-08T17:21:42;101631.84;;;1.24;58.38
47166;BME280;32930;51.112;13.762;2023-02-08T17:24:08;101635.13;;;1.45;58.46
47166;BME280;32930;51.112;13.762;2023-02-08T17:26:42;101636.72;;;1.33;58.81
47166;BME280;32930;51.112;13.762;2023-02-08T17:29:11;101639.09;;;1.53;58.60
47166;BME280;32930;51.112;13.762;2023-02-08T17:34:12;101627.09;;;1.39;58.43
47166;BME280;32930;51.112;13.762;2023-02-08T17:36:39;101617.38;;;1.33;58.38
47166;BME280;32930;51.112;13.762;2023-02-08T17:49:27;101619.19;;;1.46;59.06
47166;BME280;32930;51.112;13.762;2023-02-08T17:52:01;101608.59;;;1.40;58.78
47166;BME280;32930;51.112;13.762;2023-02-08T17:54:28;101609.25;;;1.37;58.64
47166;BME280;32930;51.112;13.762;2023-02-08T17:56:54;101602.13;;;1.44;58.72
47166;BME280;32930;51.112;13.762;2023-02-08T18:04:33;101611.69;;;1.36;58.95
47166;BME280;32930;51.112;13.762;2023-02-08T18:07:07;101611.78;;;1.37;59.03
47166;BME280;32930;51.112;13.762;2023-02-08T18:09:32;101609.97;;;1.25;59.16
47166;BME280;32930;51.112;13.762;2023-02-08T18:11:58;101599.75;;;1.23;59.34
47166;BME280;32930;51.112;13.762;2023-02-08T18:14:24;101599.78;;;1.35;59.47
47166;BME280;32930;51.112;13.762;2023-02-08T18:16:49;101600.47;;;1.44;59.45
47166;BME280;32930;51.112;13.762;2023-02-08T18:21:53;101600.00;;;1.38;59.36
47166;BME280;32930;51.112;13.762;2023-02-08T18:25:02;101604.09;;;1.36;58.96
47166;BME280;32930;51.112;13.762;2023-02-08T18:27:53;101602.66;;;1.06;59.33
47166;BME280;32930;51.112;13.762;2023-02-08T18:46:08;101597.81;;;0.87;60.36
47166;BME280;32930;51.112;13.762;2023-02-08T18:48:35;101599.09;;;1.04;60.23
47166;BME280;32930;51.112;13.762;2023-02-08T18:51:01;101599.81;;;0.91;60.24
47166;BME280;32930;51.112;13.762;2023-02-08T18:53:32;101598.06;;;1.12;60.33
47166;BME280;32930;51.112;13.762;2023-02-08T18:56:00;101590.72;;;0.93;60.55
47166;BME280;32930;51.112;13.762;2023-02-08T18:58:38;101590.66;;;0.81;60.48
47166;BME280;32930;51.112;13.762;2023-02-08T19:01:16;101589.38;;;0.86;60.74
47166;BME280;32930;51.112;13.762;2023-02-08T19:03:43;101575.69;;;0.73;60.95
47166;BME280;32930;51.112;13.762;2023-02-08T19:06:12;101573.72;;;0.58;61.54
47166;BME280;32930;51.112;13.762;2023-02-08T19:08:40;101573.31;;;0.64;61.83
47166;BME280;32930;51.112;13.762;2023-02-08T19:11:18;101568.78;;;0.82;61.14
47166;BME280;32930;51.112;13.762;2023-02-08T19:13:45;101563.00;;;0.83;60.99
47166;BME280;32930;51.112;13.762;2023-02-08T19:16:11;101556.84;;;0.79;60.73
47166;BME280;32930;51.112;13.762;2023-02-08T19:18:37;101552.81;;;0.93;60.98
47166;BME280;32930;51.112;13.762;2023-02-08T19:21:08;101543.19;;;0.99;60.70
47166;BME280;32930;51.112;13.762;2023-02-08T19:23:35;101535.59;;;0.99;60.29
47166;BME280;32930;51.112;13.762;2023-02-08T19:26:02;101530.66;;;0.79;60.87
47166;BME280;32930;51.112;13.762;2023-02-08T19:28:28;101528.75;;;0.86;60.76
47166;BME280;32930;51.112;13.762;2023-02-08T19:31:04;101525.03;;;0.71;60.97
47166;BME280;32930;51.112;13.762;2023-02-08T19:33:30;101515.97;;;0.85;61.36
47166;BME280;32930;51.112;13.762;2023-02-08T19:35:56;101519.66;;;0.88;60.81
47166;BME280;32930;51.112;13.762;2023-02-08T19:38:21;101519.34;;;0.96;60.50
47166;BME280;32930;51.112;13.762;2023-02-08T19:40:53;101507.88;;;0.89;60.62
47166;BME280;32930;51.112;13.762;2023-02-08T19:43:19;101500.63;;;0.93;60.75
47166;BME280;32930;51.112;13.762;2023-02-08T19:45:45;101500.19;;;0.87;60.58
47166;BME280;32930;51.112;13.762;2023-02-08T19:48:10;101497.97;;;0.80;60.49
47166;BME280;32930;51.112;13.762;2023-02-08T19:50:36;101497.81;;;0.79;60.61
47166;BME280;32930;51.112;13.762;2023-02-08T19:53:01;101495.31;;;0.57;60.40
47166;BME280;32930;51.112;13.762;2023-02-08T19:55:27;101494.97;;;0.74;60.75
47166;BME280;32930;51.112;13.762;2023-02-08T19:57:52;101494.63;;;0.69;60.73
47166;BME280;32930;51.112;13.762;2023-02-08T20:00:18;101491.91;;;0.78;60.37
47166;BME280;32930;51.112;13.762;2023-02-08T20:02:43;101493.88;;;0.71;59.80
47166;BME280;32930;51.112;13.762;2023-02-08T20:05:09;101488.81;;;0.71;59.54
47166;BME280;32930;51.112;13.762;2023-02-08T20:07:34;101475.63;;;0.75;59.44
47166;BME280;32930;51.112;13.762;2023-02-08T20:10:00;101489.81;;;0.73;59.35
47166;BME280;32930;51.112;13.762;2023-02-08T20:12:25;101480.53;;;0.61;59.23
47166;BME280;32930;51.112;13.762;2023-02-08T20:14:51;101467.28;;;0.76;59.16
47166;BME280;32930;51.112;13.762;2023-02-08T20:17:16;101467.13;;;0.62;59.18
47166;BME280;32930;51.112;13.762;2023-02-08T20:19:42;101451.66;;;0.91;58.49
47166;BME280;32930;51.112;13.762;2023-02-08T20:22:08;101460.13;;;0.92;57.99
47166;BME280;32930;51.112;13.762;2023-02-08T20:24:33;101460.13;;;0.92;57.86
47166;BME280;32930;51.112;13.762;2023-02-08T20:26:59;101458.34;;;0.91;58.01
47166;BME280;32930;51.112;13.762;2023-02-08T20:29:24;101453.00;;;0.98;57.66
47166;BME280;32930;51.112;13.762;2023-02-08T20:31:52;101456.78;;;0.81;57.51
47166;BME280;32930;51.112;13.762;2023-02-08T20:34:20;101449.25;;;0.93;57.53
47166;BME280;32930;51.112;13.762;2023-02-08T20:36:46;101447.09;;;0.76;57.94
47166;BME280;32930;51.112;13.762;2023-02-08T20:39:15;101439.81;;;0.68;58.01
47166;BME280;32930;51.112;13.762;2023-02-08T20:41:41;101443.50;;;0.84;57.64
47166;BME280;32930;51.112;13.762;2023-02-08T20:44:10;101439.03;;;0.91;57.41
47166;BME280;32930;51.112;13.762;2023-02-08T20:46:36;101444.53;;;1.09;57.24
47166;BME280;32930;51.112;13.762;2023-02-08T20:49:04;101438.25;;;0.92;56.79
47166;BME280;32930;51.112;13.762;2023-02-08T20:51:31;101428.97;;;0.69;57.43
47166;BME280;32930;51.112;13.762;2023-02-08T20:53:58;101432.16;;;0.79;57.34
47166;BME280;32930;51.112;13.762;2023-02-08T20:56:34;101428.28;;;1.06;57.34
47166;BME280;32930;51.112;13.762;2023-02-08T20:59:05;101421.53;;;0.83;56.91
47166;BME280;32930;51.112;13.762;2023-02-08T21:01:32;101412.72;;;0.78;57.48
47166;BME280;32930;51.112;13.762;2023-02-08T21:03:59;101423.38;;;0.74;57.59
47166;BME280;32930;51.112;13.762;2023-02-08T21:06:30;101413.97;;;0.83;57.25
47166;BME280;32930;51.112;13.762;2023-02-08T21:08:59;101414.47;;;0.79;57.52
47166;BME280;32930;51.112;13.762;2023-02-08T21:11:28;101405.56;;;0.60;57.50
47166;BME280;32930;51.112;13.762;2023-02-08T21:13:56;101408.13;;;0.84;57.56
47166;BME280;32930;51.112;13.762;2023-02-08T21:16:22;101402.31;;;0.85;57.64
47166;BME280;32930;51.112;13.762;2023-02-08T21:18:49;101391.06;;;0.58;58.23
47166;BME280;32930;51.112;13.762;2023-02-08T21:21:15;101393.03;;;0.62;57.75
47166;BME280;32930;51.112;13.762;2023-02-08T21:23:41;101387.34;;;0.64;57.67
47166;BME280;32930;51.112;13.762;2023-02-08T21:26:07;101378.28;;;0.56;58.11
47166;BME280;32930;51.112;13.762;2023-02-08T21:28:33;101378.56;;;0.71;58.00
47166;BME280;32930;51.112;13.762;2023-02-08T21:31:02;101370.31;;;0.62;57.89
47166;BME280;32930;51.112;13.762;2023-02-08T21:33:29;101368.00;;;0.65;57.89
47166;BME280;32930;51.112;13.762;2023-02-08T21:35:55;101358.38;;;0.83;57.58
47166;BME280;32930;51.112;13.762;2023-02-08T21:38:20;101362.53;;;0.71;57.50
47166;BME280;32930;51.112;13.762;2023-02-08T21:40:46;101361.78;;;0.83;57.61
47166;BME280;32930;51.112;13.762;2023-02-08T21:43:11;101357.38;;;0.81;57.07
47166;BME280;32930;51.112;13.762;2023-02-08T21:45:37;101354.84;;;0.81;56.95
47166;BME280;32930;51.112;13.762;2023-02-08T21:48:03;101347.72;;;0.63;57.21
47166;BME280;32930;51.112;13.762;2023-02-08T21:50:28;101333.31;;;0.74;56.96
47166;BME280;32930;51.112;13.762;2023-02-08T21:53:32;101347.25;;;0.57;57.24
47166;BME280;32930;51.112;13.762;2023-02-08T21:56:17;101336.81;;;0.64;57.15
47166;BME280;32930;51.112;13.762;2023-02-08T21:58:42;101336.09;;;0.77;57.07
47166;BME280;32930;51.112;13.762;2023-02-08T22:01:08;101337.59;;;0.63;57.05
47166;BME280;32930;51.112;13.762;2023-02-08T22:03:33;101321.25;;;0.70;57.36
47166;BME280;32930;51.112;13.762;2023-02-08T22:05:59;101323.00;;;0.71;57.08
47166;BME280;32930;51.112;13.762;2023-02-08T22:08:43;101315.00;;;0.77;57.03
47166;BME280;32930;51.112;13.762;2023-02-08T22:11:09;101324.59;;;0.47;57.26
47166;BME280;32930;51.112;13.762;2023-02-08T22:13:34;101318.47;;;0.55;57.59
47166;BME280;32930;51.112;13.762;2023-02-08T22:16:00;101315.53;;;0.61;57.77
47166;BME280;32930;51.112;13.762;2023-02-08T22:18:26;101321.53;;;0.63;57.42
47166;BME280;32930;51.112;13.762;2023-02-08T22:20:53;101322.97;;;0.48;57.56
47166;BME280;32930;51.112;13.762;2023-02-08T22:23:19;101323.00;;;0.26;57.90
47166;BME280;32930;51.112;13.762;2023-02-08T22:25:44;101314.50;;;0.47;57.99
47166;BME280;32930;51.112;13.762;2023-02-08T22:28:10;101319.16;;;0.31;57.84
47166;BME280;32930;51.112;13.762;2023-02-08T22:30:35;101312.88;;;0.48;57.85
47166;BME280;32930;51.112;13.762;2023-02-08T22:33:01;101304.97;;;0.55;57.44
47166;BME280;32930;51.112;13.762;2023-02-08T22:35:27;101303.41;;;0.45;57.45
47166;BME280;32930;51.112;13.762;2023-02-08T22:37:52;101310.56;;;0.62;57.49
47166;BME280;32930;51.112;13.762;2023-02-08T22:40:18;101304.00;;;0.64;57.51
47166;BME280;32930;51.112;13.762;2023-02-08T22:42:44;101312.78;;;0.24;57.38
47166;BME280;32930;51.112;13.762;2023-02-08T22:45:10;101304.78;;;0.63;57.43
47166;BME280;32930;51.112;13.762;2023-02-08T22:47:36;101308.25;;;0.42;57.34
47166;BME280;32930;51.112;13.762;2023-02-08T22:50:03;101304.28;;;0.45;57.65
47166;BME280;32930;51.112;13.762;2023-02-08T22:52:29;101302.47;;;0.66;57.28
